Time;durP1;ratioP1;P1;durP2;ratioP2;P2;SDS_P1;SDS_P2;PMS_P1;PMS_P2;Temp;Humidity;BMP_temperature;BMP_pressure;BME280_temperature;BME280_humidity;BME280_pressure;Samples;Min_cycle;Max_cycle;Signal;HPM_P1;HPM_P2
2022/05/01 00:01:52;;;;;;;15.60;14.10;;;8.20;99.90;;;;;;4960617;28;20049;-73
2022/05/01 00:04:18;;;;;;;17.35;15.48;;;8.20;99.90;;;;;;4961460;28;20042;-74
2022/05/01 00:06:44;;;;;;;16.25;14.65;;;8.20;99.90;;;;;;4971022;28;20053;-74
2022/05/01 00:09:10;;;;;;;16.17;14.55;;;8.20;99.90;;;;;;4966687;28;20053;-74
2022/05/01 00:11:36;;;;;;;17.98;15.10;;;8.20;99.90;;;;;;4947371;28;20199;-74
2022/05/01 00:14:01;;;;;;;18.13;16.33;;;8.20;99.90;;;;;;4959932;28;20054;-74
2022/05/01 00:16:28;;;;;;;17.63;15.93;;;8.20;99.90;;;;;;4978774;28;20060;-74
2022/05/01 00:18:53;;;;;;;17.13;15.32;;;8.20;99.90;;;;;;4958520;28;20795;-73
2022/05/01 00:21:19;;;;;;;17.02;15.40;;;8.20;99.90;;;;;;4949577;28;20050;-73
2022/05/01 00:23:45;;;;;;;15.88;14.27;;;8.10;99.90;;;;;;4979730;28;20068;-73
2022/05/01 00:26:12;;;;;;;18.48;16.77;;;8.20;99.90;;;;;;4967990;28;20046;-74
2022/05/01 00:28:38;;;;;;;17.58;15.88;;;8.20;99.90;;;;;;4982535;28;20057;-74
2022/05/01 00:31:06;;;;;;;16.35;14.77;;;8.10;99.90;;;;;;4966824;28;20038;-72
2022/05/01 00:36:26;;;;;;;17.83;16.00;;;8.10;99.90;;;;;;4973194;28;20054;-73
2022/05/01 00:39:04;;;;;;;17.25;15.55;;;8.10;99.90;;;;;;4954756;28;20045;-74
2022/05/01 00:41:31;;;;;;;17.92;15.95;;;8.10;99.90;;;;;;4984846;28;20060;-74
2022/05/01 00:44:04;;;;;;;16.88;15.27;;;8.00;99.90;;;;;;4948801;28;20054;-74
2022/05/01 00:46:35;;;;;;;16.13;14.55;;;8.00;99.90;;;;;;4978284;28;20049;-73
2022/05/01 00:49:04;;;;;;;17.27;15.68;;;7.90;99.90;;;;;;4987307;28;20484;-73
2022/05/01 00:51:33;;;;;;;17.42;15.75;;;7.90;99.90;;;;;;4978161;28;20855;-73
2022/05/01 00:53:59;;;;;;;19.27;17.48;;;7.90;99.90;;;;;;4980810;28;20077;-73
2022/05/01 00:56:26;;;;;;;17.38;15.77;;;7.90;99.90;;;;;;4963292;28;20135;-73
2022/05/01 00:58:52;;;;;;;17.67;15.85;;;7.90;99.90;;;;;;4981009;28;20381;-73
2022/05/01 01:01:19;;;;;;;16.92;15.43;;;7.90;99.90;;;;;;4967921;28;20127;-73
2022/05/01 01:03:45;;;;;;;19.42;17.52;;;7.90;99.90;;;;;;4952625;28;20069;-73
2022/05/01 01:06:11;;;;;;;18.27;16.63;;;7.90;99.90;;;;;;4956760;28;20080;-73
2022/05/01 01:08:39;;;;;;;18.42;16.58;;;7.90;99.90;;;;;;4965906;28;20048;-73
2022/05/01 01:11:05;;;;;;;19.70;17.67;;;7.90;99.90;;;;;;4957903;28;20034;-73
2022/05/01 01:13:30;;;;;;;19.70;17.80;;;7.90;99.90;;;;;;4949535;28;20045;-73
2022/05/01 01:15:57;;;;;;;18.42;16.60;;;7.90;99.90;;;;;;4963808;28;20045;-74
2022/05/01 01:18:24;;;;;;;21.02;18.95;;;7.90;99.90;;;;;;4973488;28;20556;-74
2022/05/01 01:20:54;;;;;;;21.35;19.23;;;7.80;99.90;;;;;;4977730;28;20050;-74
2022/05/01 01:23:23;;;;;;;22.33;20.23;;;7.80;99.90;;;;;;4978331;28;20052;-74
2022/05/01 01:25:50;;;;;;;21.95;19.85;;;7.80;99.90;;;;;;4950968;28;20567;-83
2022/05/01 01:28:18;;;;;;;22.83;20.77;;;7.70;99.90;;;;;;4935867;28;20496;-84
2022/05/01 01:33:30;;;;;;;21.42;19.38;;;7.70;99.90;;;;;;4966946;28;20568;-84
2022/05/01 01:35:58;;;;;;;23.15;20.83;;;7.70;99.90;;;;;;4958706;28;20070;-83
2022/05/01 01:38:24;;;;;;;24.45;22.08;;;7.70;99.90;;;;;;4954214;28;20412;-83
2022/05/01 01:40:53;;;;;;;22.23;20.13;;;7.60;99.90;;;;;;4961157;28;20049;-84
2022/05/01 01:43:24;;;;;;;24.15;21.80;;;7.60;99.90;;;;;;4957176;28;20101;-84
2022/05/01 01:45:51;;;;;;;23.77;21.48;;;7.60;99.90;;;;;;4975562;28;20046;-84
2022/05/01 01:48:19;;;;;;;23.08;20.88;;;7.60;99.90;;;;;;4977710;28;20493;-84
2022/05/01 01:50:58;;;;;;;24.08;21.67;;;7.60;99.90;;;;;;4962470;28;20039;-83
2022/05/01 01:53:24;;;;;;;26.23;23.83;;;7.70;99.90;;;;;;4956057;28;20046;-84
2022/05/01 01:55:53;;;;;;;26.50;24.00;;;7.70;99.90;;;;;;4962864;28;20496;-83
2022/05/01 01:58:19;;;;;;;25.00;22.67;;;7.60;99.90;;;;;;4965275;28;20104;-83
2022/05/01 02:00:45;;;;;;;25.02;22.60;;;7.60;99.90;;;;;;4977380;28;20046;-84
2022/05/01 02:03:11;;;;;;;27.10;24.25;;;7.60;99.90;;;;;;4957696;28;20665;-83
2022/05/01 02:05:37;;;;;;;27.15;24.52;;;7.60;99.90;;;;;;4987430;28;20046;-83
2022/05/01 02:08:05;;;;;;;26.17;23.45;;;7.60;99.90;;;;;;4958634;28;20489;-83
2022/05/01 02:10:32;;;;;;;25.48;23.00;;;7.60;99.90;;;;;;4980775;28;20588;-83
2022/05/01 02:13:00;;;;;;;26.63;23.85;;;7.50;99.90;;;;;;4971335;28;20578;-83
2022/05/01 02:15:30;;;;;;;25.30;22.75;;;7.50;99.90;;;;;;4937953;28;20053;-83
2022/05/01 02:17:58;;;;;;;24.80;22.60;;;7.50;99.90;;;;;;4953076;28;20039;-83
2022/05/01 02:20:25;;;;;;;26.58;23.85;;;7.40;99.90;;;;;;4969595;28;20103;-83
2022/05/01 02:22:53;;;;;;;25.58;23.15;;;7.40;99.90;;;;;;4955832;28;20089;-83
2022/05/01 02:25:21;;;;;;;27.77;25.08;;;7.40;99.90;;;;;;4972308;28;20057;-83
2022/05/01 02:27:47;;;;;;;26.00;23.60;;;7.30;99.90;;;;;;4957060;28;20111;-83
2022/05/01 02:30:13;;;;;;;27.05;24.55;;;7.30;99.90;;;;;;4985920;28;20049;-83
2022/05/01 02:32:39;;;;;;;28.98;26.00;;;7.30;99.90;;;;;;4921174;28;20077;-83
2022/05/01 02:35:06;;;;;;;25.23;22.88;;;7.30;99.90;;;;;;4938989;28;20570;-84
2022/05/01 02:37:32;;;;;;;26.80;24.35;;;7.30;99.90;;;;;;4961676;28;20050;-83
2022/05/01 02:39:58;;;;;;;26.55;23.95;;;7.20;99.90;;;;;;4954834;28;20046;-84
2022/05/01 02:42:24;;;;;;;26.25;23.85;;;7.20;99.90;;;;;;4971808;28;20101;-83
2022/05/01 02:44:50;;;;;;;29.65;26.73;;;7.20;99.90;;;;;;4985371;28;20069;-84
2022/05/01 02:47:16;;;;;;;30.60;27.48;;;7.20;99.90;;;;;;4979256;28;20050;-84
2022/05/01 02:49:42;;;;;;;25.48;23.10;;;7.20;99.90;;;;;;4971535;28;20519;-83
2022/05/01 02:52:09;;;;;;;29.17;26.33;;;7.10;99.90;;;;;;4986777;28;20136;-83
2022/05/01 02:54:36;;;;;;;28.40;25.65;;;7.10;99.90;;;;;;4935403;28;20050;-84
2022/05/01 02:57:02;;;;;;;26.00;23.48;;;7.10;99.90;;;;;;4968071;28;20084;-83
2022/05/01 02:59:29;;;;;;;31.15;28.25;;;7.10;99.90;;;;;;4967112;28;20050;-83
2022/05/01 03:01:55;;;;;;;31.15;27.80;;;7.10;99.90;;;;;;4952308;28;20047;-83
2022/05/01 03:04:22;;;;;;;33.50;30.23;;;7.10;99.90;;;;;;4967993;28;20049;-84
2022/05/01 03:06:48;;;;;;;32.00;29.00;;;7.10;99.90;;;;;;4967681;28;20579;-83
2022/05/01 03:09:13;;;;;;;27.98;25.25;;;7.00;99.90;;;;;;4986655;28;20049;-84
2022/05/01 03:11:39;;;;;;;31.10;28.13;;;7.00;99.90;;;;;;4969913;28;20092;-83
2022/05/01 03:14:09;;;;;;;27.58;24.83;;;6.90;99.90;;;;;;4955191;28;20050;-83
2022/05/01 03:16:35;;;;;;;28.35;25.65;;;6.90;99.90;;;;;;4940591;28;20458;-83
2022/05/01 03:24:31;;;;;;;28.50;25.55;;;6.80;99.90;;;;;;4971328;28;20050;-83
2022/05/01 03:26:57;;;;;;;29.42;26.67;;;6.80;99.90;;;;;;4973730;28;20053;-82
2022/05/01 03:29:23;;;;;;;30.10;27.33;;;6.70;99.90;;;;;;4974222;28;20046;-83
2022/05/01 03:31:50;;;;;;;28.67;25.88;;;6.70;99.90;;;;;;4955653;28;20146;-83
2022/05/01 03:34:17;;;;;;;28.40;25.80;;;6.60;99.90;;;;;;4971151;28;20086;-83
2022/05/01 03:36:47;;;;;;;35.33;31.80;;;6.50;99.90;;;;;;4986028;28;20582;-83
2022/05/01 03:39:16;;;;;;;38.72;34.72;;;6.50;99.90;;;;;;4974854;28;20085;-83
2022/05/01 03:41:42;;;;;;;28.40;25.58;;;6.40;99.90;;;;;;4957434;28;20570;-82
2022/05/01 03:44:08;;;;;;;26.27;23.88;;;6.30;99.90;;;;;;4957569;28;20042;-73
2022/05/01 03:46:36;;;;;;;25.60;23.20;;;6.20;99.90;;;;;;4973158;28;20117;-73
2022/05/01 03:49:03;;;;;;;28.25;25.52;;;6.10;99.90;;;;;;4970468;28;20045;-73
2022/05/01 03:51:31;;;;;;;31.10;28.23;;;6.10;99.90;;;;;;4970831;28;20050;-73
2022/05/01 03:53:59;;;;;;;27.50;24.83;;;6.00;99.90;;;;;;4958981;28;20101;-73
2022/05/01 03:56:25;;;;;;;25.58;23.13;;;6.00;99.90;;;;;;4969691;28;20097;-72
2022/05/01 03:58:51;;;;;;;28.15;25.48;;;6.00;99.90;;;;;;4969466;28;20046;-73
2022/05/01 04:01:16;;;;;;;28.80;25.92;;;5.90;99.90;;;;;;4956769;28;20057;-73
2022/05/01 04:03:42;;;;;;;27.58;24.95;;;5.90;99.90;;;;;;4952822;28;20064;-72
2022/05/01 04:06:08;;;;;;;29.38;26.70;;;5.90;99.90;;;;;;4979198;28;20520;-72
2022/05/01 04:08:35;;;;;;;30.88;27.83;;;5.90;99.90;;;;;;4971578;28;20127;-72
2022/05/01 04:11:01;;;;;;;30.25;27.23;;;5.80;99.90;;;;;;4958299;28;20504;-72
2022/05/01 04:13:27;;;;;;;30.42;27.25;;;5.80;99.90;;;;;;4988573;28;20057;-74
2022/05/01 04:15:53;;;;;;;29.63;26.88;;;5.70;99.90;;;;;;4988306;28;20056;-73
2022/05/01 04:18:21;;;;;;;29.27;26.52;;;5.70;99.90;;;;;;4972563;28;20145;-73
2022/05/01 04:20:47;;;;;;;33.65;30.45;;;5.70;99.90;;;;;;4972356;28;20545;-73
2022/05/01 04:23:13;;;;;;;32.55;29.45;;;5.70;99.90;;;;;;4987023;28;20058;-73
2022/05/01 04:25:40;;;;;;;33.63;30.25;;;5.60;99.90;;;;;;4971519;28;20057;-73
2022/05/01 04:28:10;;;;;;;31.50;28.50;;;5.60;99.90;;;;;;4971317;28;20418;-73
2022/05/01 04:30:38;;;;;;;29.83;26.92;;;5.50;99.90;;;;;;4971657;28;20104;-73
2022/05/01 04:33:15;;;;;;;32.60;29.23;;;5.60;99.90;;;;;;4970773;28;20042;-73
2022/05/01 04:35:44;;;;;;;30.67;27.55;;;5.60;99.90;;;;;;4987825;28;20054;-73
2022/05/01 04:38:11;;;;;;;29.00;26.38;;;5.60;99.90;;;;;;4988004;28;20046;-73
2022/05/01 04:40:42;;;;;;;31.40;28.33;;;5.60;99.90;;;;;;4987566;28;20037;-73
2022/05/01 04:43:09;;;;;;;30.83;27.92;;;5.60;99.90;;;;;;4968557;28;20470;-73
2022/05/01 04:45:37;;;;;;;32.60;29.50;;;5.70;99.90;;;;;;4949186;28;20532;-73
2022/05/01 04:48:05;;;;;;;31.90;28.67;;;5.60;99.90;;;;;;4956765;28;20053;-73
2022/05/01 04:50:31;;;;;;;31.67;28.67;;;5.60;99.90;;;;;;4958487;28;20044;-73
2022/05/01 04:53:00;;;;;;;31.48;28.38;;;5.60;99.90;;;;;;4982912;28;20049;-73
2022/05/01 04:55:26;;;;;;;31.15;28.20;;;5.60;99.90;;;;;;4962884;28;20559;-73
2022/05/01 04:57:52;;;;;;;32.42;29.13;;;5.50;99.90;;;;;;4952051;28;20046;-73
2022/05/01 05:00:21;;;;;;;40.85;36.70;;;5.50;99.90;;;;;;4978762;28;20502;-73
2022/05/01 05:02:49;;;;;;;34.58;31.27;;;5.50;99.90;;;;;;4936697;28;20080;-73
2022/05/01 05:05:15;;;;;;;31.15;28.15;;;5.50;99.90;;;;;;4962081;28;20038;-73
2022/05/01 05:07:42;;;;;;;31.52;28.35;;;5.50;99.90;;;;;;4945822;28;20240;-73
2022/05/01 05:10:09;;;;;;;35.40;31.88;;;5.50;99.90;;;;;;4950941;28;20048;-73
2022/05/01 05:12:42;;;;;;;31.45;28.38;;;5.60;99.90;;;;;;4958011;28;20143;-73
2022/05/01 05:15:12;;;;;;;30.48;27.27;;;5.60;99.90;;;;;;4980353;28;20042;-82
2022/05/01 05:17:38;;;;;;;32.40;29.27;;;5.60;99.90;;;;;;4974007;28;20163;-82
2022/05/01 05:20:06;;;;;;;34.05;30.65;;;5.70;99.90;;;;;;4962452;28;20150;-82
2022/05/01 05:22:32;;;;;;;32.90;29.75;;;5.70;99.90;;;;;;4966273;28;20049;-82
2022/05/01 05:24:58;;;;;;;32.00;29.02;;;5.80;99.90;;;;;;4940386;28;20065;-83
2022/05/01 05:27:25;;;;;;;32.80;29.60;;;5.80;99.90;;;;;;4944756;28;20042;-82
2022/05/01 05:29:58;;;;;;;30.98;28.20;;;5.90;99.90;;;;;;4969015;28;20649;-82
2022/05/01 05:32:25;;;;;;;30.02;27.13;;;6.00;99.90;;;;;;4976538;28;20126;-82
2022/05/01 05:34:51;;;;;;;33.90;30.67;;;6.00;99.90;;;;;;4967086;28;20061;-82
2022/05/01 05:37:18;;;;;;;32.13;28.77;;;6.00;99.90;;;;;;4980355;28;20117;-82
2022/05/01 05:39:45;;;;;;;31.77;28.52;;;6.10;99.90;;;;;;4966836;28;20038;-82
2022/05/01 05:42:11;;;;;;;34.00;30.65;;;6.10;99.90;;;;;;4984171;28;20543;-83
2022/05/01 05:44:38;;;;;;;34.28;30.88;;;6.20;99.90;;;;;;4978345;28;20069;-83
2022/05/01 05:47:04;;;;;;;30.90;27.98;;;6.20;99.90;;;;;;4985858;28;20046;-82
2022/05/01 05:49:33;;;;;;;31.88;28.80;;;6.30;99.90;;;;;;4973511;28;20109;-82
2022/05/01 05:52:00;;;;;;;28.85;26.05;;;6.40;99.90;;;;;;4958407;28;20064;-82
2022/05/01 05:54:26;;;;;;;30.27;27.20;;;6.40;99.90;;;;;;4978427;28;20555;-73
2022/05/01 05:56:52;;;;;;;28.17;25.15;;;6.50;99.90;;;;;;4950286;28;20085;-73
2022/05/01 05:59:17;;;;;;;27.83;25.23;;;6.50;99.90;;;;;;4984014;28;20448;-81
2022/05/01 06:01:43;;;;;;;26.13;23.65;;;6.60;99.90;;;;;;4947766;28;20042;-82
2022/05/01 06:04:09;;;;;;;26.85;24.10;;;6.50;99.90;;;;;;4970040;28;20058;-83
2022/05/01 06:06:35;;;;;;;27.90;25.13;;;6.70;99.90;;;;;;4948964;28;20391;-82
2022/05/01 06:09:01;;;;;;;23.30;21.08;;;6.80;99.90;;;;;;4970335;28;20069;-73
2022/05/01 06:11:27;;;;;;;23.23;21.10;;;6.80;99.90;;;;;;4961301;28;20466;-73
2022/05/01 06:13:53;;;;;;;23.15;20.35;;;6.90;99.90;;;;;;4945684;28;20038;-73
2022/05/01 06:16:20;;;;;;;23.35;21.08;;;7.00;99.90;;;;;;4964517;28;20042;-74
2022/05/01 06:18:46;;;;;;;21.08;19.05;;;7.10;99.90;;;;;;4949634;28;20076;-75
2022/05/01 06:21:13;;;;;;;20.13;18.05;;;7.20;99.90;;;;;;4976825;28;20081;-74
2022/05/01 06:23:39;;;;;;;21.33;19.23;;;7.30;99.90;;;;;;4977158;28;20053;-73
2022/05/01 06:26:07;;;;;;;20.75;18.67;;;7.40;99.90;;;;;;4951296;28;20061;-72
2022/05/01 06:28:33;;;;;;;20.02;18.10;;;7.50;99.90;;;;;;4958879;28;20042;-73
2022/05/01 06:31:00;;;;;;;18.13;16.25;;;7.60;99.90;;;;;;4975779;28;20047;-73
2022/05/01 06:33:29;;;;;;;16.98;15.30;;;7.80;99.90;;;;;;4959759;28;20081;-74
2022/05/01 06:35:55;;;;;;;16.40;14.75;;;7.90;99.90;;;;;;4979152;28;20043;-73
2022/05/01 06:38:22;;;;;;;14.93;13.27;;;8.00;99.90;;;;;;4961749;28;20551;-73
2022/05/01 06:40:48;;;;;;;14.73;13.27;;;8.10;99.90;;;;;;4961761;28;20130;-74
2022/05/01 06:43:16;;;;;;;15.48;13.90;;;8.20;99.90;;;;;;4963266;28;20096;-74
2022/05/01 06:45:42;;;;;;;13.90;12.60;;;8.30;99.90;;;;;;4969798;28;20734;-74
2022/05/01 06:48:11;;;;;;;13.27;11.98;;;8.50;99.90;;;;;;4979549;28;20404;-74
2022/05/01 06:50:38;;;;;;;14.73;13.32;;;8.60;99.90;;;;;;4967130;28;20049;-74
2022/05/01 06:53:04;;;;;;;12.73;11.43;;;8.60;99.90;;;;;;4950632;28;20046;-73
2022/05/01 06:55:30;;;;;;;14.23;12.80;;;8.70;99.90;;;;;;4962137;28;20141;-74
2022/05/01 06:57:56;;;;;;;16.67;11.80;;;8.90;99.90;;;;;;4963874;28;20165;-73
2022/05/01 07:00:22;;;;;;;11.98;10.35;;;9.00;99.90;;;;;;4963433;28;20042;-74
2022/05/01 07:02:50;;;;;;;11.57;10.43;;;9.10;99.90;;;;;;4977327;28;20046;-74
2022/05/01 07:05:17;;;;;;;11.15;10.07;;;9.20;99.90;;;;;;4982516;28;20049;-73
2022/05/01 07:07:43;;;;;;;11.32;10.00;;;9.30;99.90;;;;;;4986370;28;20080;-74
2022/05/01 07:10:10;;;;;;;8.45;7.63;;;9.30;99.90;;;;;;4937574;28;20046;-73
2022/05/01 07:12:35;;;;;;;5.53;4.38;;;9.50;99.90;;;;;;4943843;28;20410;-73
2022/05/01 07:15:02;;;;;;;9.13;8.23;;;9.60;99.90;;;;;;4969950;28;20046;-73
2022/05/01 07:17:28;;;;;;;9.50;8.50;;;9.60;99.90;;;;;;4968351;28;20049;-74
2022/05/01 07:19:54;;;;;;;9.38;7.40;;;9.70;99.90;;;;;;4965368;28;20058;-75
2022/05/01 07:22:20;;;;;;;9.10;7.82;;;9.70;99.90;;;;;;4957186;28;20120;-75
2022/05/01 07:24:46;;;;;;;10.20;7.85;;;9.80;99.90;;;;;;4962853;28;20046;-75
2022/05/01 07:27:12;;;;;;;12.20;8.05;;;9.90;99.90;;;;;;4971685;28;20045;-75
2022/05/01 07:29:37;;;;;;;8.52;7.63;;;9.90;99.90;;;;;;4953966;28;20057;-75
2022/05/01 07:32:04;;;;;;;9.10;7.70;;;9.90;99.90;;;;;;4987258;28;20107;-74
2022/05/01 07:34:29;;;;;;;7.82;6.38;;;10.00;99.90;;;;;;4973399;28;20041;-75
2022/05/01 07:36:55;;;;;;;9.07;8.15;;;10.20;99.90;;;;;;4966798;28;20049;-75
2022/05/01 07:39:21;;;;;;;9.93;8.13;;;10.30;99.90;;;;;;4943628;28;20900;-75
2022/05/01 07:41:47;;;;;;;9.25;7.65;;;10.40;99.90;;;;;;4948241;28;20034;-75
2022/05/01 07:44:13;;;;;;;9.43;7.28;;;10.50;99.90;;;;;;4981072;28;20103;-75
2022/05/01 07:46:40;;;;;;;9.82;8.82;;;10.60;99.90;;;;;;4953441;28;20050;-74
2022/05/01 07:49:07;;;;;;;11.45;9.25;;;10.80;99.90;;;;;;4978819;28;20547;-81
2022/05/01 07:51:33;;;;;;;9.80;8.80;;;10.80;99.90;;;;;;4965351;28;20042;-83
2022/05/01 07:53:58;;;;;;;9.80;8.80;;;10.90;99.90;;;;;;4965789;28;20044;-83
2022/05/01 07:56:28;;;;;;;9.60;8.60;;;11.00;99.90;;;;;;4953732;28;20058;-83
2022/05/01 07:58:54;;;;;;;8.88;7.20;;;11.10;99.90;;;;;;4973268;28;20085;-82
2022/05/01 08:01:23;;;;;;;10.07;8.75;;;11.10;99.90;;;;;;4985537;28;20046;-81
2022/05/01 08:06:33;;;;;;;9.65;8.25;;;11.10;99.90;;;;;;4972986;28;20053;-83
2022/05/01 08:08:59;;;;;;;9.20;8.30;;;10.90;99.90;;;;;;4953921;28;20558;-84
2022/05/01 08:11:25;;;;;;;9.82;8.88;;;10.80;99.90;;;;;;4979623;28;20041;-84
2022/05/01 08:13:51;;;;;;;10.10;9.10;;;10.90;99.90;;;;;;4948243;28;20092;-84
2022/05/01 08:16:17;;;;;;;9.55;8.32;;;10.90;99.90;;;;;;4957352;28;20484;-84
2022/05/01 08:21:32;;;;;;;8.55;7.65;;;10.90;99.90;;;;;;4977442;28;20516;-76
2022/05/01 08:24:00;;;;;;;11.10;8.38;;;10.90;99.90;;;;;;4964449;28;20049;-76
2022/05/01 08:26:26;;;;;;;9.95;7.75;;;10.80;99.90;;;;;;4977371;28;20527;-85
2022/05/01 08:28:54;;;;;;;8.70;7.80;;;10.80;99.90;;;;;;4979635;28;20038;-86
2022/05/01 08:31:23;;;;;;;9.38;7.80;;;10.80;99.90;;;;;;4971386;28;20034;-85
2022/05/01 08:33:49;;;;;;;8.13;7.32;;;10.80;99.90;;;;;;4972536;28;20046;-87
2022/05/01 08:36:15;;;;;;;7.82;6.63;;;10.90;99.90;;;;;;4964003;28;20042;-85
2022/05/01 08:38:42;;;;;;;6.70;5.85;;;10.90;99.90;;;;;;4961095;28;20062;-85
2022/05/01 08:41:09;;;;;;;7.82;6.40;;;11.00;99.90;;;;;;4949790;28;20039;-76
2022/05/01 08:43:36;;;;;;;8.45;7.20;;;11.00;99.90;;;;;;4982836;28;20046;-76
2022/05/01 08:46:13;;;;;;;7.80;6.60;;;11.00;99.90;;;;;;4959859;28;20057;-76
2022/05/01 08:48:53;;;;;;;7.65;6.55;;;11.00;99.90;;;;;;4969179;28;20453;-76
2022/05/01 08:51:21;;;;;;;7.57;6.07;;;11.00;99.90;;;;;;4979992;28;20037;-77
2022/05/01 08:53:52;;;;;;;8.32;6.25;;;11.00;99.90;;;;;;4977882;28;20502;-76
2022/05/01 08:56:18;;;;;;;7.85;5.95;;;11.00;99.90;;;;;;4963450;28;20149;-84
2022/05/01 08:58:46;;;;;;;6.88;6.13;;;11.00;99.90;;;;;;4976238;28;20049;-86
2022/05/01 09:01:12;;;;;;;8.55;6.20;;;11.00;99.90;;;;;;4983535;28;20494;-85
2022/05/01 09:03:41;;;;;;;6.60;5.60;;;11.10;99.90;;;;;;4967992;28;20084;-86
2022/05/01 09:06:06;;;;;;;9.13;6.05;;;11.20;99.90;;;;;;4958141;28;20046;-87
2022/05/01 09:08:32;;;;;;;7.95;5.60;;;11.30;99.90;;;;;;4948188;28;20108;-85
2022/05/01 09:12:49;;;;;;;9.13;6.22;;;11.50;99.90;;;;;;4978658;28;20121;-86
2022/05/01 09:13:47;;;;;;;7.50;5.95;;;11.50;99.90;;;;;;4973244;28;20496;-84
2022/05/01 09:16:13;;;;;;;7.15;5.88;;;11.70;99.90;;;;;;4979423;28;20404;-87
2022/05/01 09:18:44;;;;;;;7.70;5.95;;;11.80;99.90;;;;;;4983354;28;20050;-77
2022/05/01 09:21:10;;;;;;;7.18;5.97;;;11.90;99.90;;;;;;4977431;28;20054;-76
2022/05/01 09:23:40;;;;;;;10.63;6.65;;;11.90;99.90;;;;;;4969927;28;20050;-74
2022/05/01 09:26:08;;;;;;;8.30;6.43;;;12.00;99.90;;;;;;4984735;28;20749;-74
2022/05/01 09:28:34;;;;;;;7.00;6.13;;;12.10;99.90;;;;;;4970283;28;20050;-75
2022/05/01 09:31:00;;;;;;;7.28;6.00;;;12.20;99.90;;;;;;4977766;28;20052;-74
2022/05/01 09:33:26;;;;;;;7.72;5.47;;;12.20;99.90;;;;;;4975943;28;20045;-75
2022/05/01 09:35:52;;;;;;;8.82;5.55;;;12.30;99.90;;;;;;4982337;28;20104;-75
2022/05/01 09:38:23;;;;;;;7.47;6.15;;;12.40;99.90;;;;;;4943749;28;20069;-75
2022/05/01 09:40:55;;;;;;;7.53;5.57;;;12.60;99.90;;;;;;4973707;28;20047;-75
2022/05/01 09:43:43;;;;;;;7.90;5.88;;;12.80;99.90;;;;;;4965728;28;20520;-74
2022/05/01 09:46:17;;;;;;;6.65;4.70;;;13.00;99.90;;;;;;4968697;28;20516;-75
2022/05/01 09:48:58;;;;;;;6.15;5.35;;;13.00;99.00;;;;;;4969999;28;20057;-75
2022/05/01 09:51:25;;;;;;;7.68;5.20;;;13.10;99.60;;;;;;4969391;28;20046;-88
2022/05/01 09:53:51;;;;;;;6.32;4.75;;;13.30;97.20;;;;;;4979183;28;20270;-86
2022/05/01 09:56:16;;;;;;;7.10;5.25;;;13.40;97.90;;;;;;4966674;28;20061;-88
2022/05/01 09:58:45;;;;;;;6.30;5.07;;;13.60;99.10;;;;;;4981870;28;20058;-90
2022/05/01 10:01:13;;;;;;;6.13;4.78;;;13.80;96.40;;;;;;4967438;28;20092;-89
2022/05/01 10:03:46;;;;;;;5.35;4.80;;;13.90;94.00;;;;;;4966713;28;20046;-87
2022/05/01 10:06:14;;;;;;;6.57;4.50;;;13.90;93.50;;;;;;4981251;28;20046;-89
2022/05/01 10:08:42;;;;;;;6.65;4.88;;;14.00;94.50;;;;;;4977426;28;20050;-87
2022/05/01 10:11:08;;;;;;;8.77;4.85;;;14.00;92.30;;;;;;4976800;28;20050;-76
2022/05/01 10:13:35;;;;;;;6.22;4.90;;;14.00;92.90;;;;;;4962008;28;20556;-76
2022/05/01 10:16:06;;;;;;;7.63;5.57;;;14.10;91.20;;;;;;4961778;28;20082;-87
2022/05/01 10:18:31;;;;;;;;;;;14.10;91.60;;;;;;4973235;28;20096;-87
2022/05/01 10:20:58;;;;;;;6.47;4.88;;;14.20;90.90;;;;;;4965587;28;19925;-84
2022/05/01 10:23:25;;;;;;;6.40;5.00;;;14.20;91.00;;;;;;4967451;28;20054;-88
2022/05/01 10:25:57;;;;;;;5.70;4.30;;;14.30;90.70;;;;;;4956230;28;20042;-84
2022/05/01 10:28:34;;;;;;;5.78;4.57;;;14.40;90.40;;;;;;4984820;28;20050;-88
2022/05/01 10:34:22;;;;;;;6.90;4.63;;;14.70;87.70;;;;;;4981618;28;20137;-76
2022/05/01 10:37:14;;;;;;;6.30;4.38;;;14.90;84.70;;;;;;4982454;28;20042;-76
2022/05/01 10:39:42;;;;;;;5.88;4.35;;;15.00;86.90;;;;;;4942136;28;20054;-76
2022/05/01 10:42:08;;;;;;;7.00;4.32;;;15.00;84.40;;;;;;4965992;28;20407;-76
2022/05/01 10:44:37;;;;;;;4.28;2.90;;;14.90;85.50;;;;;;4945416;28;20045;-76
2022/05/01 10:47:06;;;;;;;4.45;3.10;;;15.00;81.80;;;;;;4966693;28;20125;-89
2022/05/01 10:49:39;;;;;;;7.57;3.40;;;15.10;79.40;;;;;;4990335;28;20048;-76
2022/05/01 10:52:22;;;;;;;6.00;4.00;;;15.20;77.10;;;;;;4986922;28;20099;-76
2022/05/01 10:55:01;;;;;;;7.15;3.85;;;15.20;73.40;;;;;;4990504;28;20119;-76
2022/05/01 10:57:27;;;;;;;7.07;3.30;;;15.30;73.90;;;;;;4970405;28;20052;-76
2022/05/01 11:00:12;;;;;;;4.22;3.15;;;15.40;69.50;;;;;;4967550;28;20052;-76
2022/05/01 11:02:45;;;;;;;5.57;3.50;;;15.50;66.60;;;;;;4986719;28;20557;-75
2022/05/01 11:05:32;;;;;;;5.40;3.60;;;15.60;64.20;;;;;;4962934;28;20521;-76
2022/05/01 11:08:00;;;;;;;5.22;3.85;;;15.50;64.70;;;;;;4966079;28;20478;-75
2022/05/01 11:10:26;;;;;;;5.18;3.88;;;15.50;62.50;;;;;;4962027;28;20069;-76
2022/05/01 11:12:53;;;;;;;5.88;3.80;;;15.50;65.20;;;;;;4951534;28;20146;-76
2022/05/01 11:15:27;;;;;;;6.07;4.40;;;15.50;68.60;;;;;;4981032;28;20036;-76
2022/05/01 11:17:53;;;;;;;6.95;4.55;;;15.50;65.80;;;;;;4965731;28;20103;-76
2022/05/01 11:20:19;;;;;;;6.30;4.35;;;15.40;68.10;;;;;;4967528;28;20056;-75
2022/05/01 11:22:46;;;;;;;6.72;4.32;;;15.20;70.00;;;;;;4975390;28;20058;-75
2022/05/01 11:25:23;;;;;;;7.72;4.60;;;15.10;68.70;;;;;;4959984;28;20563;-75
2022/05/01 11:27:53;;;;;;;9.23;5.03;;;15.00;70.80;;;;;;4975727;28;20050;-75
2022/05/01 11:30:29;;;;;;;;;;;15.00;73.10;;;;;;4944697;28;20045;-75
2022/05/01 11:33:11;;;;;;;5.90;4.68;;;14.90;74.60;;;;;;4973890;28;19936;-75
2022/05/01 11:35:56;;;;;;;8.48;5.00;;;15.00;77.40;;;;;;4975285;28;20501;-77
2022/05/01 11:38:24;;;;;;;7.60;5.13;;;15.00;75.10;;;;;;4975617;28;20496;-75
2022/05/01 11:40:55;;;;;;;8.82;5.43;;;15.10;76.90;;;;;;4963145;28;20117;-75
2022/05/01 11:43:21;;;;;;;6.75;5.10;;;15.30;78.10;;;;;;4957125;28;20663;-76
2022/05/01 11:45:47;;;;;;;7.32;5.18;;;15.40;76.70;;;;;;4971865;28;20496;-75
2022/05/01 11:48:23;;;;;;;6.25;4.72;;;15.60;76.20;;;;;;4946659;28;20035;-74
2022/05/01 11:50:51;;;;;;;5.70;4.32;;;15.70;69.60;;;;;;4977972;28;20042;-76
2022/05/01 11:53:25;;;;;;;8.48;5.15;;;15.50;69.40;;;;;;4980287;28;20047;-74
2022/05/01 12:04:47;;;;;;;6.50;4.38;;;15.00;75.20;;;;;;4980484;28;20052;-76
2022/05/01 12:07:15;;;;;;;5.90;4.93;;;14.90;72.00;;;;;;4889811;29;20267;-75
2022/05/01 12:09:43;;;;;;;6.32;4.60;;;14.80;74.60;;;;;;4943606;28;20046;-76
2022/05/01 12:12:20;;;;;;;5.68;4.80;;;14.70;75.50;;;;;;4948515;28;20035;-75
2022/05/01 12:14:49;;;;;;;5.85;4.75;;;14.70;73.00;;;;;;4965054;28;20046;-75
2022/05/01 12:17:21;;;;;;;6.75;4.38;;;14.60;70.90;;;;;;4974887;28;20496;-75
2022/05/01 12:19:51;;;;;;;4.63;3.90;;;14.60;73.80;;;;;;4940538;28;20050;-76
2022/05/01 12:22:20;;;;;;;;;;;14.50;74.80;;;;;;4984451;28;20050;-76
2022/05/01 12:24:48;;;;;;;6.13;4.68;;;14.40;72.40;;;;;;4967820;28;20361;-76
2022/05/01 12:27:15;;;;;;;6.88;4.50;;;14.40;75.20;;;;;;4963921;28;20039;-76
2022/05/01 12:29:49;;;;;;;6.32;4.35;;;14.40;76.20;;;;;;4968838;28;20050;-75
2022/05/01 12:32:16;;;;;;;5.68;4.57;;;14.40;78.10;;;;;;4982237;28;20046;-75
2022/05/01 12:34:51;;;;;;;6.95;5.00;;;14.40;79.10;;;;;;4961505;28;20053;-76
2022/05/01 12:37:19;;;;;;;6.70;4.43;;;14.40;80.90;;;;;;4982509;28;20171;-76
2022/05/01 12:40:09;;;;;;;6.05;4.45;;;14.30;77.60;;;;;;4974566;28;20472;-75
2022/05/01 12:45:38;;;;;;;6.47;4.78;;;14.20;80.10;;;;;;4969877;28;20088;-75
2022/05/01 12:48:08;;;;;;;6.75;4.60;;;14.10;82.00;;;;;;4981970;28;20046;-75
2022/05/01 12:50:37;;;;;;;;;;;14.00;83.60;;;;;;4951758;28;20046;-75
2022/05/01 12:53:21;;;;;;;7.22;4.78;;;14.00;84.90;;;;;;4968558;28;19953;-76
2022/05/01 12:55:47;;;;;;;7.10;5.05;;;13.90;87.00;;;;;;4981571;28;20050;-76
2022/05/01 12:58:13;;;;;;;6.32;4.00;;;13.90;87.20;;;;;;4984828;28;20046;-76
2022/05/01 13:00:46;;;;;;;7.95;5.20;;;13.90;87.70;;;;;;4978823;28;20294;-75
2022/05/01 13:03:15;;;;;;;6.28;4.20;;;13.90;86.40;;;;;;4964204;28;20128;-75
2022/05/01 13:05:43;;;;;;;5.90;4.60;;;13.90;84.60;;;;;;4953672;28;20061;-76
2022/05/01 13:08:17;;;;;;;6.45;4.80;;;13.80;84.00;;;;;;4946972;28;20042;-76
2022/05/01 13:10:43;;;;;;;6.57;5.40;;;13.90;85.20;;;;;;4954039;28;20634;-75
2022/05/01 13:13:08;;;;;;;5.88;4.85;;;13.80;81.80;;;;;;4957267;28;20050;-75
2022/05/01 13:15:38;;;;;;;6.68;4.72;;;13.90;80.80;;;;;;4967788;28;20043;-75
2022/05/01 13:18:04;;;;;;;6.97;4.75;;;13.90;81.90;;;;;;4978838;28;20049;-76
2022/05/01 13:20:33;;;;;;;5.63;4.35;;;14.00;81.30;;;;;;4951713;28;20046;-76